sensor_id;sensor_type;location;lat;lon;timestamp;temperature;humidity
66596;SHT31;59017;49.252;18.838;2022-10-16T00:01:20;20.72;63.17
66596;SHT31;59017;49.252;18.838;2022-10-16T00:03:46;20.73;63.32
66596;SHT31;59017;49.252;18.838;2022-10-16T00:06:13;20.70;63.23
66596;SHT31;59017;49.252;18.838;2022-10-16T00:08:39;20.69;63.28
66596;SHT31;59017;49.252;18.838;2022-10-16T00:11:14;20.68;63.22
66596;SHT31;59017;49.252;18.838;2022-10-16T00:13:41;20.69;63.24
66596;SHT31;59017;49.252;18.838;2022-10-16T00:16:08;20.68;63.10
66596;SHT31;59017;49.252;18.838;2022-10-16T00:18:34;20.68;63.30
66596;SHT31;59017;49.252;18.838;2022-10-16T00:21:22;20.68;63.47
66596;SHT31;59017;49.252;18.838;2022-10-16T00:23:56;20.69;63.22
66596;SHT31;59017;49.252;18.838;2022-10-16T00:26:22;20.69;63.23
66596;SHT31;59017;49.252;18.838;2022-10-16T00:28:48;20.66;63.18
66596;SHT31;59017;49.252;18.838;2022-10-16T00:31:16;20.69;63.34
66596;SHT31;59017;49.252;18.838;2022-10-16T00:33:42;20.68;63.28
66596;SHT31;59017;49.252;18.838;2022-10-16T00:36:10;20.68;63.33
66596;SHT31;59017;49.252;18.838;2022-10-16T00:38:36;20.70;63.23
66596;SHT31;59017;49.252;18.838;2022-10-16T00:41:03;20.69;63.20
66596;SHT31;59017;49.252;18.838;2022-10-16T00:46:20;20.68;63.69
66596;SHT31;59017;49.252;18.838;2022-10-16T00:52:06;20.69;63.37
66596;SHT31;59017;49.252;18.838;2022-10-16T00:54:25;20.69;63.69
66596;SHT31;59017;49.252;18.838;2022-10-16T00:56:52;20.70;63.56
66596;SHT31;59017;49.252;18.838;2022-10-16T00:59:28;20.69;63.64
66596;SHT31;59017;49.252;18.838;2022-10-16T01:01:54;20.70;63.60
66596;SHT31;59017;49.252;18.838;2022-10-16T01:04:20;20.69;63.71
66596;SHT31;59017;49.252;18.838;2022-10-16T01:07:02;20.69;63.88
66596;SHT31;59017;49.252;18.838;2022-10-16T01:09:37;20.69;63.77
66596;SHT31;59017;49.252;18.838;2022-10-16T01:22:48;20.68;63.62
66596;SHT31;59017;49.252;18.838;2022-10-16T01:28:22;20.69;63.49
66596;SHT31;59017;49.252;18.838;2022-10-16T01:30:50;20.68;63.52
66596;SHT31;59017;49.252;18.838;2022-10-16T01:33:21;20.68;63.42
66596;SHT31;59017;49.252;18.838;2022-10-16T01:35:54;20.68;63.51
66596;SHT31;59017;49.252;18.838;2022-10-16T01:38:28;20.68;63.28
66596;SHT31;59017;49.252;18.838;2022-10-16T01:41:00;20.66;63.69
66596;SHT31;59017;49.252;18.838;2022-10-16T01:43:40;20.69;63.81
66596;SHT31;59017;49.252;18.838;2022-10-16T01:46:07;20.69;63.53
66596;SHT31;59017;49.252;18.838;2022-10-16T01:48:35;20.65;63.32
66596;SHT31;59017;49.252;18.838;2022-10-16T01:51:06;20.66;63.34
66596;SHT31;59017;49.252;18.838;2022-10-16T01:53:32;20.65;63.44
66596;SHT31;59017;49.252;18.838;2022-10-16T01:55:58;20.65;63.49
66596;SHT31;59017;49.252;18.838;2022-10-16T01:58:27;20.62;63.43
66596;SHT31;59017;49.252;18.838;2022-10-16T02:00:53;20.63;63.47
66596;SHT31;59017;49.252;18.838;2022-10-16T02:03:19;20.65;63.39
66596;SHT31;59017;49.252;18.838;2022-10-16T02:05:52;20.65;63.26
66596;SHT31;59017;49.252;18.838;2022-10-16T02:08:19;20.65;63.67
66596;SHT31;59017;49.252;18.838;2022-10-16T02:10:45;20.66;63.51
66596;SHT31;59017;49.252;18.838;2022-10-16T02:13:31;20.63;63.65
66596;SHT31;59017;49.252;18.838;2022-10-16T02:15:58;20.63;63.52
66596;SHT31;59017;49.252;18.838;2022-10-16T02:18:24;20.65;63.40
66596;SHT31;59017;49.252;18.838;2022-10-16T02:20:59;20.68;63.74
66596;SHT31;59017;49.252;18.838;2022-10-16T02:23:42;20.66;63.66
66596;SHT31;59017;49.252;18.838;2022-10-16T02:26:15;20.65;63.79
66596;SHT31;59017;49.252;18.838;2022-10-16T02:28:53;20.63;63.58
66596;SHT31;59017;49.252;18.838;2022-10-16T02:31:26;20.63;63.57
66596;SHT31;59017;49.252;18.838;2022-10-16T02:33:54;20.65;63.74
66596;SHT31;59017;49.252;18.838;2022-10-16T02:36:21;20.66;63.75
66596;SHT31;59017;49.252;18.838;2022-10-16T02:38:47;20.65;63.71
66596;SHT31;59017;49.252;18.838;2022-10-16T02:41:13;20.65;63.67
66596;SHT31;59017;49.252;18.838;2022-10-16T02:43:39;20.63;63.45
66596;SHT31;59017;49.252;18.838;2022-10-16T02:46:04;20.65;63.63
66596;SHT31;59017;49.252;18.838;2022-10-16T02:48:30;20.65;63.80
66596;SHT31;59017;49.252;18.838;2022-10-16T02:50:56;20.68;64.07
66596;SHT31;59017;49.252;18.838;2022-10-16T02:53:22;20.65;63.79
66596;SHT31;59017;49.252;18.838;2022-10-16T02:55:47;20.66;63.76
66596;SHT31;59017;49.252;18.838;2022-10-16T02:58:13;20.63;63.72
66596;SHT31;59017;49.252;18.838;2022-10-16T03:00:38;20.65;63.91
66596;SHT31;59017;49.252;18.838;2022-10-16T03:03:04;20.63;63.68
66596;SHT31;59017;49.252;18.838;2022-10-16T03:05:29;20.63;63.82
66596;SHT31;59017;49.252;18.838;2022-10-16T03:07:55;20.65;63.81
66596;SHT31;59017;49.252;18.838;2022-10-16T03:10:20;20.62;63.73
66596;SHT31;59017;49.252;18.838;2022-10-16T03:12:46;20.63;63.76
66596;SHT31;59017;49.252;18.838;2022-10-16T03:15:11;20.68;63.62
66596;SHT31;59017;49.252;18.838;2022-10-16T03:17:37;20.62;63.61
66596;SHT31;59017;49.252;18.838;2022-10-16T03:20:03;20.63;63.67
66596;SHT31;59017;49.252;18.838;2022-10-16T03:22:29;20.65;63.57
66596;SHT31;59017;49.252;18.838;2022-10-16T03:24:54;20.65;63.65
66596;SHT31;59017;49.252;18.838;2022-10-16T03:27:20;20.60;63.36
66596;SHT31;59017;49.252;18.838;2022-10-16T03:29:46;20.62;63.47
66596;SHT31;59017;49.252;18.838;2022-10-16T03:32:11;20.62;63.43
66596;SHT31;59017;49.252;18.838;2022-10-16T03:34:37;20.62;63.27
66596;SHT31;59017;49.252;18.838;2022-10-16T03:37:02;20.63;63.40
66596;SHT31;59017;49.252;18.838;2022-10-16T03:39:27;20.62;63.52
66596;SHT31;59017;49.252;18.838;2022-10-16T03:41:53;20.62;63.38
66596;SHT31;59017;49.252;18.838;2022-10-16T03:44:18;20.60;63.40
66596;SHT31;59017;49.252;18.838;2022-10-16T03:46:44;20.65;63.61
66596;SHT31;59017;49.252;18.838;2022-10-16T03:49:09;20.62;63.67
66596;SHT31;59017;49.252;18.838;2022-10-16T03:51:35;20.60;63.43
66596;SHT31;59017;49.252;18.838;2022-10-16T03:54:00;20.63;63.90
66596;SHT31;59017;49.252;18.838;2022-10-16T03:56:26;20.60;63.96
66596;SHT31;59017;49.252;18.838;2022-10-16T03:58:51;20.62;64.02
66596;SHT31;59017;49.252;18.838;2022-10-16T04:01:17;20.60;64.25
66596;SHT31;59017;49.252;18.838;2022-10-16T04:03:42;20.62;64.13
66596;SHT31;59017;49.252;18.838;2022-10-16T04:06:07;20.62;63.87
66596;SHT31;59017;49.252;18.838;2022-10-16T04:08:34;20.60;64.06
66596;SHT31;59017;49.252;18.838;2022-10-16T04:11:02;20.59;63.96
66596;SHT31;59017;49.252;18.838;2022-10-16T04:13:28;20.60;64.08
66596;SHT31;59017;49.252;18.838;2022-10-16T04:15:53;20.59;63.86
66596;SHT31;59017;49.252;18.838;2022-10-16T04:18:18;20.62;64.08
66596;SHT31;59017;49.252;18.838;2022-10-16T04:20:44;20.62;63.84
66596;SHT31;59017;49.252;18.838;2022-10-16T04:23:10;20.60;63.87
66596;SHT31;59017;49.252;18.838;2022-10-16T04:25:35;20.60;64.33
66596;SHT31;59017;49.252;18.838;2022-10-16T04:28:01;20.59;63.90
66596;SHT31;59017;49.252;18.838;2022-10-16T04:30:26;20.59;64.04
66596;SHT31;59017;49.252;18.838;2022-10-16T04:32:52;20.60;64.02
66596;SHT31;59017;49.252;18.838;2022-10-16T04:35:18;20.63;63.94
66596;SHT31;59017;49.252;18.838;2022-10-16T04:37:44;20.59;63.99
66596;SHT31;59017;49.252;18.838;2022-10-16T04:40:10;20.60;63.88
66596;SHT31;59017;49.252;18.838;2022-10-16T04:42:35;20.59;63.66
66596;SHT31;59017;49.252;18.838;2022-10-16T04:45:01;20.57;63.82
66596;SHT31;59017;49.252;18.838;2022-10-16T04:47:26;20.57;63.85
66596;SHT31;59017;49.252;18.838;2022-10-16T04:49:52;20.56;63.98
66596;SHT31;59017;49.252;18.838;2022-10-16T04:52:17;20.56;64.10
66596;SHT31;59017;49.252;18.838;2022-10-16T04:54:44;20.57;63.98
66596;SHT31;59017;49.252;18.838;2022-10-16T04:57:10;20.57;64.35
66596;SHT31;59017;49.252;18.838;2022-10-16T04:59:36;20.59;64.71
66596;SHT31;59017;49.252;18.838;2022-10-16T05:02:02;20.59;64.01
66596;SHT31;59017;49.252;18.838;2022-10-16T05:04:27;20.60;64.29
66596;SHT31;59017;49.252;18.838;2022-10-16T05:06:53;20.59;64.03
66596;SHT31;59017;49.252;18.838;2022-10-16T05:09:18;20.62;64.23
66596;SHT31;59017;49.252;18.838;2022-10-16T05:11:44;20.63;64.48
66596;SHT31;59017;49.252;18.838;2022-10-16T05:14:09;20.62;64.68
66596;SHT31;59017;49.252;18.838;2022-10-16T05:16:34;20.60;64.63
66596;SHT31;59017;49.252;18.838;2022-10-16T05:19:00;20.60;64.63
66596;SHT31;59017;49.252;18.838;2022-10-16T05:21:25;20.62;64.60
66596;SHT31;59017;49.252;18.838;2022-10-16T05:23:53;20.62;64.94
66596;SHT31;59017;49.252;18.838;2022-10-16T05:26:19;20.63;64.70
66596;SHT31;59017;49.252;18.838;2022-10-16T05:28:44;20.63;64.83
66596;SHT31;59017;49.252;18.838;2022-10-16T05:31:10;20.63;64.72
66596;SHT31;59017;49.252;18.838;2022-10-16T05:33:35;20.63;64.34
66596;SHT31;59017;49.252;18.838;2022-10-16T05:36:09;20.63;63.92
66596;SHT31;59017;49.252;18.838;2022-10-16T05:38:36;20.60;64.19
66596;SHT31;59017;49.252;18.838;2022-10-16T05:41:03;20.62;63.90
66596;SHT31;59017;49.252;18.838;2022-10-16T05:43:29;20.60;63.37
66596;SHT31;59017;49.252;18.838;2022-10-16T05:46:02;20.60;63.29
66596;SHT31;59017;49.252;18.838;2022-10-16T05:48:28;20.59;64.15
66596;SHT31;59017;49.252;18.838;2022-10-16T05:50:59;20.59;63.98
66596;SHT31;59017;49.252;18.838;2022-10-16T05:53:25;20.63;64.26
66596;SHT31;59017;49.252;18.838;2022-10-16T05:55:52;20.62;64.17
66596;SHT31;59017;49.252;18.838;2022-10-16T05:58:18;20.66;64.26
66596;SHT31;59017;49.252;18.838;2022-10-16T06:00:44;20.65;64.24
66596;SHT31;59017;49.252;18.838;2022-10-16T06:03:09;20.62;64.14
66596;SHT31;59017;49.252;18.838;2022-10-16T06:05:35;20.65;64.19
66596;SHT31;59017;49.252;18.838;2022-10-16T06:08:00;20.65;64.61
66596;SHT31;59017;49.252;18.838;2022-10-16T06:10:26;20.65;63.71
66596;SHT31;59017;49.252;18.838;2022-10-16T06:12:51;20.63;63.32
66596;SHT31;59017;49.252;18.838;2022-10-16T06:15:16;20.63;63.34
66596;SHT31;59017;49.252;18.838;2022-10-16T06:17:42;20.62;63.57
66596;SHT31;59017;49.252;18.838;2022-10-16T06:20:08;20.60;63.36
66596;SHT31;59017;49.252;18.838;2022-10-16T06:22:33;20.62;63.24
66596;SHT31;59017;49.252;18.838;2022-10-16T06:24:59;20.59;63.26
66596;SHT31;59017;49.252;18.838;2022-10-16T06:27:24;20.60;62.89
66596;SHT31;59017;49.252;18.838;2022-10-16T06:29:50;20.60;63.14
66596;SHT31;59017;49.252;18.838;2022-10-16T06:32:15;20.62;62.84
66596;SHT31;59017;49.252;18.838;2022-10-16T06:34:40;20.60;62.99
66596;SHT31;59017;49.252;18.838;2022-10-16T06:37:06;20.65;63.16
66596;SHT31;59017;49.252;18.838;2022-10-16T06:39:31;20.65;63.24
66596;SHT31;59017;49.252;18.838;2022-10-16T06:41:57;20.66;63.31
66596;SHT31;59017;49.252;18.838;2022-10-16T06:44:22;20.63;63.47
66596;SHT31;59017;49.252;18.838;2022-10-16T06:46:48;20.66;63.44
66596;SHT31;59017;49.252;18.838;2022-10-16T06:49:13;20.69;63.54
66596;SHT31;59017;49.252;18.838;2022-10-16T06:51:46;20.66;63.52
66596;SHT31;59017;49.252;18.838;2022-10-16T06:54:11;20.68;63.55
66596;SHT31;59017;49.252;18.838;2022-10-16T06:56:37;20.70;63.59
66596;SHT31;59017;49.252;18.838;2022-10-16T06:59:02;20.68;63.55
66596;SHT31;59017;49.252;18.838;2022-10-16T07:01:32;20.68;63.47
66596;SHT31;59017;49.252;18.838;2022-10-16T07:03:57;20.70;63.53
66596;SHT31;59017;49.252;18.838;2022-10-16T07:06:24;20.69;63.45
66596;SHT31;59017;49.252;18.838;2022-10-16T07:08:51;20.70;63.28
66596;SHT31;59017;49.252;18.838;2022-10-16T07:11:18;20.68;63.23
66596;SHT31;59017;49.252;18.838;2022-10-16T07:13:45;20.69;63.21
66596;SHT31;59017;49.252;18.838;2022-10-16T07:16:19;20.69;63.07
66596;SHT31;59017;49.252;18.838;2022-10-16T07:18:45;20.69;63.22
66596;SHT31;59017;49.252;18.838;2022-10-16T07:21:15;20.66;63.10
66596;SHT31;59017;49.252;18.838;2022-10-16T07:23:42;20.69;63.10
66596;SHT31;59017;49.252;18.838;2022-10-16T07:26:08;20.69;62.98
66596;SHT31;59017;49.252;18.838;2022-10-16T07:28:34;20.66;62.95
66596;SHT31;59017;49.252;18.838;2022-10-16T07:31:06;20.68;62.91
66596;SHT31;59017;49.252;18.838;2022-10-16T07:33:32;20.69;62.99
66596;SHT31;59017;49.252;18.838;2022-10-16T07:35:58;20.66;62.79
66596;SHT31;59017;49.252;18.838;2022-10-16T07:38:23;20.68;62.95
66596;SHT31;59017;49.252;18.838;2022-10-16T07:40:56;20.68;62.85
66596;SHT31;59017;49.252;18.838;2022-10-16T07:43:22;20.66;62.93
66596;SHT31;59017;49.252;18.838;2022-10-16T07:45:48;20.70;62.83
66596;SHT31;59017;49.252;18.838;2022-10-16T07:48:14;20.68;62.80
66596;SHT31;59017;49.252;18.838;2022-10-16T07:50:40;20.66;62.90
66596;SHT31;59017;49.252;18.838;2022-10-16T07:53:06;20.68;62.95
66596;SHT31;59017;49.252;18.838;2022-10-16T07:55:33;20.69;62.78
66596;SHT31;59017;49.252;18.838;2022-10-16T07:57:58;20.69;62.68
66596;SHT31;59017;49.252;18.838;2022-10-16T08:00:24;20.68;62.56
66596;SHT31;59017;49.252;18.838;2022-10-16T08:02:49;20.70;62.66
66596;SHT31;59017;49.252;18.838;2022-10-16T08:05:15;20.69;62.57
66596;SHT31;59017;49.252;18.838;2022-10-16T08:07:40;20.73;62.65
66596;SHT31;59017;49.252;18.838;2022-10-16T08:10:06;20.72;62.56
66596;SHT31;59017;49.252;18.838;2022-10-16T08:12:32;20.70;62.49
66596;SHT31;59017;49.252;18.838;2022-10-16T08:14:57;20.75;62.41
66596;SHT31;59017;49.252;18.838;2022-10-16T08:17:22;20.72;62.50
66596;SHT31;59017;49.252;18.838;2022-10-16T08:19:48;20.72;62.60
66596;SHT31;59017;49.252;18.838;2022-10-16T08:22:14;20.73;62.68
66596;SHT31;59017;49.252;18.838;2022-10-16T08:24:40;20.80;62.17
66596;SHT31;59017;49.252;18.838;2022-10-16T08:27:05;20.83;62.34
66596;SHT31;59017;49.252;18.838;2022-10-16T08:29:32;20.87;62.59
66596;SHT31;59017;49.252;18.838;2022-10-16T08:31:57;20.91;62.16
66596;SHT31;59017;49.252;18.838;2022-10-16T08:34:24;20.94;62.54
66596;SHT31;59017;49.252;18.838;2022-10-16T08:36:49;21.00;62.60
66596;SHT31;59017;49.252;18.838;2022-10-16T08:39:15;21.04;62.07
66596;SHT31;59017;49.252;18.838;2022-10-16T08:48:01;21.12;62.15
66596;SHT31;59017;49.252;18.838;2022-10-16T08:50:31;21.15;61.70
66596;SHT31;59017;49.252;18.838;2022-10-16T08:52:58;21.18;61.61
66596;SHT31;59017;49.252;18.838;2022-10-16T08:55:41;21.21;61.83
66596;SHT31;59017;49.252;18.838;2022-10-16T08:58:30;21.25;61.76
66596;SHT31;59017;49.252;18.838;2022-10-16T09:00:58;21.25;61.34
66596;SHT31;59017;49.252;18.838;2022-10-16T09:20:23;21.46;61.17
66596;SHT31;59017;49.252;18.838;2022-10-16T09:25:30;21.49;61.16
66596;SHT31;59017;49.252;18.838;2022-10-16T09:27:56;21.55;61.30
66596;SHT31;59017;49.252;18.838;2022-10-16T09:30:22;21.52;60.89
66596;SHT31;59017;49.252;18.838;2022-10-16T09:32:51;21.56;60.82
66596;SHT31;59017;49.252;18.838;2022-10-16T09:35:20;21.58;60.80
66596;SHT31;59017;49.252;18.838;2022-10-16T09:37:49;21.62;61.11
66596;SHT31;59017;49.252;18.838;2022-10-16T09:40:36;21.63;60.69
66596;SHT31;59017;49.252;18.838;2022-10-16T09:43:13;21.65;60.66
66596;SHT31;59017;49.252;18.838;2022-10-16T09:45:43;21.66;60.71
66596;SHT31;59017;49.252;18.838;2022-10-16T09:48:13;21.66;60.54
66596;SHT31;59017;49.252;18.838;2022-10-16T09:50:43;21.69;60.29
66596;SHT31;59017;49.252;18.838;2022-10-16T09:53:13;21.71;60.65
66596;SHT31;59017;49.252;18.838;2022-10-16T09:55:52;21.73;60.42
66596;SHT31;59017;49.252;18.838;2022-10-16T09:58:22;21.73;60.54
66596;SHT31;59017;49.252;18.838;2022-10-16T10:00:53;21.73;60.40
66596;SHT31;59017;49.252;18.838;2022-10-16T10:03:55;21.75;60.43
66596;SHT31;59017;49.252;18.838;2022-10-16T10:06:27;21.73;60.26
66596;SHT31;59017;49.252;18.838;2022-10-16T10:09:06;21.72;60.02
66596;SHT31;59017;49.252;18.838;2022-10-16T10:11:41;21.73;60.33
66596;SHT31;59017;49.252;18.838;2022-10-16T10:16:51;21.76;60.27
66596;SHT31;59017;49.252;18.838;2022-10-16T10:19:21;21.78;60.14
66596;SHT31;59017;49.252;18.838;2022-10-16T10:21:48;21.79;60.16
66596;SHT31;59017;49.252;18.838;2022-10-16T10:24:17;21.76;60.07
66596;SHT31;59017;49.252;18.838;2022-10-16T10:26:59;21.81;59.95
66596;SHT31;59017;49.252;18.838;2022-10-16T10:40:27;21.88;59.44
66596;SHT31;59017;49.252;18.838;2022-10-16T10:45:44;21.88;59.90
66596;SHT31;59017;49.252;18.838;2022-10-16T10:48:24;21.92;59.71
66596;SHT31;59017;49.252;18.838;2022-10-16T10:56:57;21.94;59.59
66596;SHT31;59017;49.252;18.838;2022-10-16T11:07:30;22.02;59.12
66596;SHT31;59017;49.252;18.838;2022-10-16T11:10:02;22.03;59.34
66596;SHT31;59017;49.252;18.838;2022-10-16T11:15:19;22.04;59.71
66596;SHT31;59017;49.252;18.838;2022-10-16T11:18:04;22.02;59.52
66596;SHT31;59017;49.252;18.838;2022-10-16T11:20:45;22.04;59.45
66596;SHT31;59017;49.252;18.838;2022-10-16T11:23:46;22.06;59.80
66596;SHT31;59017;49.252;18.838;2022-10-16T11:26:34;22.07;59.80
66596;SHT31;59017;49.252;18.838;2022-10-16T11:29:03;22.12;59.84
66596;SHT31;59017;49.252;18.838;2022-10-16T11:31:43;22.10;59.74
66596;SHT31;59017;49.252;18.838;2022-10-16T11:34:28;22.13;59.33
66596;SHT31;59017;49.252;18.838;2022-10-16T11:37:00;22.13;59.82
66596;SHT31;59017;49.252;18.838;2022-10-16T11:39:29;22.13;59.84
66596;SHT31;59017;49.252;18.838;2022-10-16T11:44:34;22.13;59.33
66596;SHT31;59017;49.252;18.838;2022-10-16T11:49:33;22.13;59.76
66596;SHT31;59017;49.252;18.838;2022-10-16T11:52:21;22.14;59.86
66596;SHT31;59017;49.252;18.838;2022-10-16T11:55:08;22.10;56.89
66596;SHT31;59017;49.252;18.838;2022-10-16T11:57:57;22.03;55.73
66596;SHT31;59017;49.252;18.838;2022-10-16T12:03:10;21.96;54.07
66596;SHT31;59017;49.252;18.838;2022-10-16T12:08:45;21.94;53.34
66596;SHT31;59017;49.252;18.838;2022-10-16T12:14:20;22.00;53.82
66596;SHT31;59017;49.252;18.838;2022-10-16T12:17:04;21.97;53.01
66596;SHT31;59017;49.252;18.838;2022-10-16T12:20:21;22.00;53.04
66596;SHT31;59017;49.252;18.838;2022-10-16T12:22:52;21.96;51.92
66596;SHT31;59017;49.252;18.838;2022-10-16T12:25:29;21.94;52.15
66596;SHT31;59017;49.252;18.838;2022-10-16T12:30:42;21.97;51.94
66596;SHT31;59017;49.252;18.838;2022-10-16T12:33:22;21.96;52.02
66596;SHT31;59017;49.252;18.838;2022-10-16T12:35:49;22.00;52.13
66596;SHT31;59017;49.252;18.838;2022-10-16T12:38:27;22.00;51.69
66596;SHT31;59017;49.252;18.838;2022-10-16T12:43:53;21.96;51.67
66596;SHT31;59017;49.252;18.838;2022-10-16T12:49:16;21.90;51.58
66596;SHT31;59017;49.252;18.838;2022-10-16T12:51:44;21.92;51.35
66596;SHT31;59017;49.252;18.838;2022-10-16T12:54:27;21.92;51.53
66596;SHT31;59017;49.252;18.838;2022-10-16T13:12:53;21.92;51.71
66596;SHT31;59017;49.252;18.838;2022-10-16T13:19:35;21.81;51.80
66596;SHT31;59017;49.252;18.838;2022-10-16T13:21:56;21.78;52.20
66596;SHT31;59017;49.252;18.838;2022-10-16T13:30:19;21.72;52.15
66596;SHT31;59017;49.252;18.838;2022-10-16T13:32:58;21.72;53.99
66596;SHT31;59017;49.252;18.838;2022-10-16T13:35:27;21.71;53.19
66596;SHT31;59017;49.252;18.838;2022-10-16T13:38:26;21.62;52.32
66596;SHT31;59017;49.252;18.838;2022-10-16T13:41:00;21.67;54.26
66596;SHT31;59017;49.252;18.838;2022-10-16T13:46:05;21.56;52.50
66596;SHT31;59017;49.252;18.838;2022-10-16T13:48:32;21.59;54.26
66596;SHT31;59017;49.252;18.838;2022-10-16T13:53:30;21.52;53.50
66596;SHT31;59017;49.252;18.838;2022-10-16T13:55:56;21.45;53.01
66596;SHT31;59017;49.252;18.838;2022-10-16T13:58:21;21.49;54.95
66596;SHT31;59017;49.252;18.838;2022-10-16T14:01:20;21.51;53.59
66596;SHT31;59017;49.252;18.838;2022-10-16T14:03:49;21.49;53.66
66596;SHT31;59017;49.252;18.838;2022-10-16T14:06:17;21.49;55.07
66596;SHT31;59017;49.252;18.838;2022-10-16T14:08:47;21.48;54.66
66596;SHT31;59017;49.252;18.838;2022-10-16T14:11:21;21.44;55.32
66596;SHT31;59017;49.252;18.838;2022-10-16T14:13:47;21.48;54.51
66596;SHT31;59017;49.252;18.838;2022-10-16T14:16:18;21.44;54.87
66596;SHT31;59017;49.252;18.838;2022-10-16T14:19:00;21.42;53.14
66596;SHT31;59017;49.252;18.838;2022-10-16T14:21:26;21.44;55.78
66596;SHT31;59017;49.252;18.838;2022-10-16T14:23:52;21.42;55.74
66596;SHT31;59017;49.252;18.838;2022-10-16T14:26:21;21.42;53.47
66596;SHT31;59017;49.252;18.838;2022-10-16T14:28:48;21.39;55.42
66596;SHT31;59017;49.252;18.838;2022-10-16T14:31:33;21.39;54.61
66596;SHT31;59017;49.252;18.838;2022-10-16T14:33:59;21.35;55.68
66596;SHT31;59017;49.252;18.838;2022-10-16T14:36:26;21.28;53.91
66596;SHT31;59017;49.252;18.838;2022-10-16T14:39:04;21.27;53.69
66596;SHT31;59017;49.252;18.838;2022-10-16T14:41:32;21.30;55.88
66596;SHT31;59017;49.252;18.838;2022-10-16T14:44:04;21.24;54.99
66596;SHT31;59017;49.252;18.838;2022-10-16T14:46:38;21.24;54.39
66596;SHT31;59017;49.252;18.838;2022-10-16T14:51:36;21.23;54.15
66596;SHT31;59017;49.252;18.838;2022-10-16T14:54:02;21.17;54.37
66596;SHT31;59017;49.252;18.838;2022-10-16T14:56:41;21.23;55.38
66596;SHT31;59017;49.252;18.838;2022-10-16T14:59:17;21.24;56.56
66596;SHT31;59017;49.252;18.838;2022-10-16T15:01:46;21.25;56.36
66596;SHT31;59017;49.252;18.838;2022-10-16T15:04:12;21.30;56.85
66596;SHT31;59017;49.252;18.838;2022-10-16T15:06:38;21.27;56.87
66596;SHT31;59017;49.252;18.838;2022-10-16T15:09:03;21.30;57.01
66596;SHT31;59017;49.252;18.838;2022-10-16T15:11:31;21.31;57.41
66596;SHT31;59017;49.252;18.838;2022-10-16T15:13:57;21.28;57.48
66596;SHT31;59017;49.252;18.838;2022-10-16T15:16:23;21.28;57.51
66596;SHT31;59017;49.252;18.838;2022-10-16T15:18:50;21.30;58.11
66596;SHT31;59017;49.252;18.838;2022-10-16T15:21:25;21.31;58.24
66596;SHT31;59017;49.252;18.838;2022-10-16T15:23:52;21.37;61.06
66596;SHT31;59017;49.252;18.838;2022-10-16T15:26:18;21.39;61.68
66596;SHT31;59017;49.252;18.838;2022-10-16T15:28:43;21.42;62.17
66596;SHT31;59017;49.252;18.838;2022-10-16T15:31:09;21.42;61.88
66596;SHT31;59017;49.252;18.838;2022-10-16T15:33:34;21.45;61.90
66596;SHT31;59017;49.252;18.838;2022-10-16T15:36:03;21.27;59.80
66596;SHT31;59017;49.252;18.838;2022-10-16T15:38:29;21.27;59.91
66596;SHT31;59017;49.252;18.838;2022-10-16T15:40:55;21.23;59.35
66596;SHT31;59017;49.252;18.838;2022-10-16T15:43:21;21.24;59.83
66596;SHT31;59017;49.252;18.838;2022-10-16T15:48:25;21.06;58.87
66596;SHT31;59017;49.252;18.838;2022-10-16T15:50:50;21.01;58.83
66596;SHT31;59017;49.252;18.838;2022-10-16T15:53:16;21.08;58.63
66596;SHT31;59017;49.252;18.838;2022-10-16T15:55:41;21.11;59.01
66596;SHT31;59017;49.252;18.838;2022-10-16T15:58:07;21.15;58.68
66596;SHT31;59017;49.252;18.838;2022-10-16T16:00:32;21.17;58.94
66596;SHT31;59017;49.252;18.838;2022-10-16T16:02:58;21.10;58.63
66596;SHT31;59017;49.252;18.838;2022-10-16T16:05:25;21.07;58.44
66596;SHT31;59017;49.252;18.838;2022-10-16T16:07:50;20.97;58.61
66596;SHT31;59017;49.252;18.838;2022-10-16T16:10:17;21.03;58.49
66596;SHT31;59017;49.252;18.838;2022-10-16T16:12:42;21.00;58.39
66596;SHT31;59017;49.252;18.838;2022-10-16T16:15:09;20.97;58.29
66596;SHT31;59017;49.252;18.838;2022-10-16T16:17:35;20.93;58.22
66596;SHT31;59017;49.252;18.838;2022-10-16T16:20:02;20.96;58.25
66596;SHT31;59017;49.252;18.838;2022-10-16T16:22:30;20.97;58.39
66596;SHT31;59017;49.252;18.838;2022-10-16T16:24:55;20.98;58.37
66596;SHT31;59017;49.252;18.838;2022-10-16T16:27:21;20.89;58.53
66596;SHT31;59017;49.252;18.838;2022-10-16T16:29:47;20.76;58.25
66596;SHT31;59017;49.252;18.838;2022-10-16T16:32:12;20.81;57.80
66596;SHT31;59017;49.252;18.838;2022-10-16T16:34:44;20.87;57.83
66596;SHT31;59017;49.252;18.838;2022-10-16T16:37:09;20.90;58.13
66596;SHT31;59017;49.252;18.838;2022-10-16T16:39:36;20.94;58.95
66596;SHT31;59017;49.252;18.838;2022-10-16T16:42:02;20.94;58.39
66596;SHT31;59017;49.252;18.838;2022-10-16T16:44:29;20.84;58.42
66596;SHT31;59017;49.252;18.838;2022-10-16T16:46:55;20.83;58.38
66596;SHT31;59017;49.252;18.838;2022-10-16T16:49:20;20.84;58.16
66596;SHT31;59017;49.252;18.838;2022-10-16T16:51:46;20.84;58.33
66596;SHT31;59017;49.252;18.838;2022-10-16T16:54:12;20.90;59.45
66596;SHT31;59017;49.252;18.838;2022-10-16T16:56:39;20.90;58.71
66596;SHT31;59017;49.252;18.838;2022-10-16T16:59:12;20.90;58.71
66596;SHT31;59017;49.252;18.838;2022-10-16T17:01:48;20.79;59.13
66596;SHT31;59017;49.252;18.838;2022-10-16T17:04:13;20.81;58.93
66596;SHT31;59017;49.252;18.838;2022-10-16T17:06:41;20.84;59.58
66596;SHT31;59017;49.252;18.838;2022-10-16T17:09:07;20.89;59.00
66596;SHT31;59017;49.252;18.838;2022-10-16T17:11:35;20.73;59.61
66596;SHT31;59017;49.252;18.838;2022-10-16T17:14:01;20.69;59.46
66596;SHT31;59017;49.252;18.838;2022-10-16T17:16:33;20.68;59.32
66596;SHT31;59017;49.252;18.838;2022-10-16T17:19:03;20.65;59.48
66596;SHT31;59017;49.252;18.838;2022-10-16T17:21:28;20.72;59.39
66596;SHT31;59017;49.252;18.838;2022-10-16T17:23:55;20.70;59.50
66596;SHT31;59017;49.252;18.838;2022-10-16T17:26:21;20.70;59.71
66596;SHT31;59017;49.252;18.838;2022-10-16T17:28:54;20.70;59.93
66596;SHT31;59017;49.252;18.838;2022-10-16T17:31:23;20.69;60.10
66596;SHT31;59017;49.252;18.838;2022-10-16T17:33:50;20.70;60.05
66596;SHT31;59017;49.252;18.838;2022-10-16T17:36:19;20.68;60.16
66596;SHT31;59017;49.252;18.838;2022-10-16T17:38:45;20.65;60.39
66596;SHT31;59017;49.252;18.838;2022-10-16T17:41:20;20.70;60.20
66596;SHT31;59017;49.252;18.838;2022-10-16T17:43:51;20.68;60.43